createdAt,value
2022-11-15T00:00:43.155Z,7.1
2022-11-15T00:06:28.170Z,7
2022-11-15T00:12:11.125Z,7
2022-11-15T00:17:54.850Z,7.4
2022-11-15T00:23:38.313Z,6.6
2022-11-15T00:29:21.355Z,6.9
2022-11-15T00:35:04.477Z,7.2
2022-11-15T00:40:47.745Z,7.1
2022-11-15T00:46:30.586Z,7.1
2022-11-15T00:52:15.462Z,7.3
2022-11-15T00:57:58.411Z,6.9
2022-11-15T01:03:41.932Z,7.1
2022-11-15T01:09:24.936Z,7
2022-11-15T01:15:08.057Z,6.6
2022-11-15T01:20:52.254Z,6.7
2022-11-15T01:26:35.343Z,7
2022-11-15T01:32:18.285Z,6.7
2022-11-15T01:38:01.065Z,7.2
2022-11-15T01:43:43.880Z,6.8
2022-11-15T01:49:30.229Z,6.7
2022-11-15T01:55:16.189Z,6.9
2022-11-15T02:01:00.363Z,6.8
2022-11-15T02:06:43.945Z,7.2
2022-11-15T02:12:27.040Z,7.3
2022-11-15T02:18:18.113Z,7
2022-11-15T02:24:18.334Z,6.7
2022-11-15T02:30:09.702Z,7.2
2022-11-15T02:35:57.849Z,7.1
2022-11-15T02:41:44.773Z,7
2022-11-15T02:47:30.438Z,6.9
2022-11-15T02:53:13.956Z,7.3
2022-11-15T02:59:04.902Z,7.2
2022-11-15T03:04:53.848Z,7.4
2022-11-15T03:10:42.625Z,6.8
2022-11-15T03:16:28.300Z,6.6
2022-11-15T03:22:13.729Z,6.8
2022-11-15T03:27:58.881Z,6.4
2022-11-15T03:33:43.085Z,6.6
2022-11-15T03:39:27.194Z,6.1
2022-11-15T03:45:13.700Z,5.7
2022-11-15T03:50:57.036Z,5.8
2022-11-15T03:56:39.978Z,5.3
2022-11-15T04:02:23.831Z,5.2
2022-11-15T04:08:06.725Z,5.1
2022-11-15T04:13:51.523Z,4.8
2022-11-15T04:19:34.309Z,4.9
2022-11-15T04:25:29.724Z,4.8
2022-11-15T04:31:14.749Z,4.9
2022-11-15T04:36:57.656Z,4.6
2022-11-15T04:42:42.704Z,4.6
2022-11-15T04:48:25.451Z,4.4
2022-11-15T04:54:08.656Z,4.4
2022-11-15T04:59:51.445Z,4.2
2022-11-15T05:05:34.548Z,4.2
2022-11-15T05:11:18.487Z,4
2022-11-15T05:17:01.353Z,3.9
2022-11-15T05:22:44.604Z,3.9
2022-11-15T05:28:27.697Z,3.8
2022-11-15T05:34:10.557Z,4.1
2022-11-15T05:39:53.571Z,3.8
2022-11-15T05:45:37.338Z,3.5
2022-11-15T05:51:21.970Z,3.8
2022-11-15T05:57:04.947Z,3.8
2022-11-15T06:02:48.090Z,3.2
2022-11-15T06:08:31.987Z,3.3
2022-11-15T06:14:16.072Z,3.3
2022-11-15T06:19:59.053Z,3.1
2022-11-15T06:25:42.009Z,3
2022-11-15T06:31:24.762Z,3.2
2022-11-15T06:37:07.703Z,3.1
2022-11-15T06:42:50.458Z,2.8
2022-11-15T06:48:33.998Z,2.6
2022-11-15T06:54:17.008Z,2.4
2022-11-15T07:00:00.011Z,3.1
2022-11-15T07:05:42.876Z,2.5
2022-11-15T07:11:25.885Z,2.5
2022-11-15T07:17:09.576Z,2.8
2022-11-15T07:22:52.496Z,2.6
2022-11-15T07:28:35.540Z,2.6
2022-11-15T07:34:18.955Z,2.5
2022-11-15T07:40:02.054Z,2.8
2022-11-15T07:45:47.228Z,2.8
2022-11-15T07:51:30.338Z,2.6
2022-11-15T07:57:14.220Z,2.5
2022-11-15T08:03:02.053Z,2.6
2022-11-15T08:08:45.114Z,2.5
2022-11-15T08:14:30.260Z,2.8
2022-11-15T08:20:13.750Z,2.3
2022-11-15T08:26:01.052Z,2.5
2022-11-15T08:31:44.377Z,2.3
2022-11-15T08:37:27.259Z,2.1
2022-11-15T08:43:10.243Z,2
2022-11-15T08:48:53.199Z,2.2
2022-11-15T08:54:36.036Z,1.9
2022-11-15T09:00:19.720Z,2
2022-11-15T09:06:04.681Z,1.9
2022-11-15T09:11:49.528Z,1.9
2022-11-15T09:17:32.398Z,2
2022-11-15T09:23:15.725Z,1.9
2022-11-15T09:28:58.564Z,1.6
2022-11-15T09:34:41.597Z,1.4
2022-11-15T09:40:25.088Z,1.7
2022-11-15T09:46:15.824Z,1.5
2022-11-15T09:52:00.300Z,1.4
2022-11-15T09:57:46.809Z,1.4
2022-11-15T10:03:32.747Z,1.4
2022-11-15T10:09:24.974Z,1.6
2022-11-15T10:15:13.633Z,1.4
2022-11-15T10:20:59.969Z,1.3
2022-11-15T10:26:48.412Z,1.5
2022-11-15T10:32:32.357Z,1.2
2022-11-15T10:38:15.325Z,1.3
2022-11-15T10:44:11.388Z,1
2022-11-15T10:50:05.540Z,1.3
2022-11-15T10:55:49.904Z,1.4
2022-11-15T11:01:39.919Z,1.2
2022-11-15T11:07:27.441Z,1.3
2022-11-15T11:13:24.504Z,1.3
2022-11-15T11:19:13.363Z,1.1
2022-11-15T11:25:01.507Z,1
2022-11-15T11:30:51.081Z,0.9
2022-11-15T11:36:37.964Z,1.3
2022-11-15T11:42:25.880Z,0.9
2022-11-15T11:48:13.129Z,1.2
2022-11-15T11:53:58.899Z,1
2022-11-15T11:59:46.241Z,1.2
2022-11-15T12:05:32.792Z,1.1
2022-11-15T12:11:17.573Z,1.2
2022-11-15T12:17:00.373Z,1.1
2022-11-15T12:22:45.436Z,1.2
2022-11-15T12:28:34.373Z,1.1
2022-11-15T12:34:26.874Z,1.1
2022-11-15T12:40:18.129Z,1
2022-11-15T12:46:03.852Z,1
2022-11-15T12:52:07.185Z,1.1
2022-11-15T12:57:50.169Z,1.2
2022-11-15T13:03:33.488Z,1.1
2022-11-15T13:09:29.363Z,1.1
2022-11-15T13:15:23.431Z,1.1
2022-11-15T13:21:08.442Z,1.1
2022-11-15T13:26:51.485Z,1.1
2022-11-15T13:32:34.391Z,1.1
2022-11-15T13:38:20.990Z,0.9
2022-11-15T13:44:04.745Z,1.1
2022-11-15T13:49:47.557Z,0.9
2022-11-15T13:55:31.200Z,1
2022-11-15T14:01:17.080Z,1.3
2022-11-15T14:07:01.822Z,1.1
2022-11-15T14:12:49.836Z,1.1
2022-11-15T14:18:49.915Z,1
2022-11-15T14:24:33.899Z,1.3
2022-11-15T14:30:20.194Z,1.1
2022-11-15T14:36:05.815Z,1.2
2022-11-15T14:41:49.928Z,1
2022-11-15T14:47:32.740Z,1.3
2022-11-15T14:53:18.879Z,1.2
2022-11-15T14:59:01.912Z,1.1
2022-11-15T15:04:44.989Z,1.4
2022-11-15T15:10:41.598Z,1.2
2022-11-15T15:16:25.104Z,1.3
2022-11-15T15:22:08.117Z,1.3
2022-11-15T15:27:51.212Z,1.2
2022-11-15T15:33:34.374Z,1.3
2022-11-15T15:39:17.430Z,1.4
2022-11-15T15:45:01.253Z,1.3
2022-11-15T15:50:44.726Z,1.3
2022-11-15T15:56:28.772Z,1.3
2022-11-15T16:02:13.921Z,1.4
2022-11-15T16:07:57.767Z,1.5
2022-11-15T16:13:40.778Z,1.3
2022-11-15T16:19:24.751Z,1.5
2022-11-15T16:25:10.884Z,1.3
2022-11-15T16:31:00.239Z,1.4
2022-11-15T16:36:43.208Z,1.5
2022-11-15T16:42:26.016Z,1.7
2022-11-15T16:48:09.046Z,1.9
2022-11-15T16:53:54.512Z,1.9
2022-11-15T16:59:40.336Z,1.8
2022-11-15T17:05:24.071Z,1.8
2022-11-15T17:11:10.466Z,1.8
2022-11-15T17:16:55.089Z,1.9
2022-11-15T17:22:37.774Z,2.1
2022-11-15T17:28:22.648Z,2
2022-11-15T17:34:06.459Z,1.9
2022-11-15T17:39:49.270Z,2
2022-11-15T17:45:33.325Z,1.8
2022-11-15T17:51:17.050Z,2
2022-11-15T17:57:01.020Z,2.1
2022-11-15T18:02:44.916Z,2
2022-11-15T18:08:28.699Z,1.9
2022-11-15T18:14:14.270Z,2.1
2022-11-15T18:19:57.199Z,2
2022-11-15T18:25:39.968Z,2.2
2022-11-15T18:31:23.958Z,1.9
2022-11-15T18:37:06.750Z,2
2022-11-15T18:42:49.454Z,2
2022-11-15T18:48:34.708Z,2
2022-11-15T18:54:18.333Z,2.1
2022-11-15T19:00:01.330Z,2.3
2022-11-15T19:05:44.437Z,2.1
2022-11-15T19:11:28.795Z,2.2
2022-11-15T19:17:11.654Z,2
2022-11-15T19:22:54.584Z,2.2
2022-11-15T19:28:37.645Z,2.2
2022-11-15T19:34:21.123Z,2.3
2022-11-15T19:40:05.504Z,2.2
2022-11-15T19:46:01.020Z,2.1
2022-11-15T19:51:46.319Z,2.5
2022-11-15T19:57:30.018Z,2.5
2022-11-15T20:03:14.777Z,2.5
2022-11-15T20:08:58.357Z,2.1
2022-11-15T20:14:41.325Z,2.1
2022-11-15T20:20:25.717Z,2.3
2022-11-15T20:26:10.102Z,2.1
2022-11-15T20:31:55.678Z,2.5
2022-11-15T20:37:39.000Z,2.5
2022-11-15T20:43:22.876Z,2.2
2022-11-15T20:49:05.933Z,2.3
2022-11-15T20:54:49.176Z,2.2
2022-11-15T21:00:32.178Z,2.3
2022-11-15T21:06:15.260Z,2.3
2022-11-15T21:11:59.627Z,2.3
2022-11-15T21:17:42.670Z,2.4
2022-11-15T21:23:25.953Z,2.4
2022-11-15T21:29:09.510Z,2.2
2022-11-15T21:34:53.652Z,2.3
2022-11-15T21:40:38.645Z,2.3
2022-11-15T21:46:21.714Z,2.3
2022-11-15T21:52:04.997Z,2.3
2022-11-15T21:57:48.066Z,2.3
2022-11-15T22:03:30.924Z,2.2
2022-11-15T22:09:13.822Z,2.1
2022-11-15T22:14:57.038Z,2.2
2022-11-15T22:20:46.322Z,2.2
2022-11-15T22:26:29.344Z,2.1
2022-11-15T22:32:12.440Z,2.1
2022-11-15T22:37:55.498Z,2
2022-11-15T22:43:38.600Z,1.9
2022-11-15T22:49:22.542Z,2.2
2022-11-15T22:55:14.740Z,1.9
2022-11-15T23:00:58.609Z,2
2022-11-15T23:06:41.819Z,2.1
2022-11-15T23:12:26.077Z,1.9
2022-11-15T23:18:09.108Z,1.9
2022-11-15T23:23:52.872Z,1.8
2022-11-15T23:29:36.096Z,2
2022-11-15T23:35:19.269Z,2.1
2022-11-15T23:41:02.373Z,2
2022-11-15T23:46:45.327Z,2.2
2022-11-15T23:52:29.221Z,2.1
2022-11-15T23:58:12.385Z,2.4
